Time;durP1;ratioP1;P1;durP2;ratioP2;P2;SDS_P1;SDS_P2;PMS_P1;PMS_P2;Temp;Humidity;BMP_temperature;BMP_pressure;BME280_temperature;BME280_humidity;BME280_pressure;Samples;Min_cycle;Max_cycle;Signal;HPM_P1;HPM_P2
2022/04/09 00:00:33;;;;;;;;;;;;;;;;;;6237287;23;19934;-59
2022/04/09 00:02:59;;;;;;;;;;;;;;;;;;6236969;23;19912;-59
2022/04/09 00:05:25;;;;;;;;;;;;;;;;;;6237642;23;19922;-59
2022/04/09 00:07:50;;;;;;;;;;;;;;;;;;6237669;23;20032;-59
2022/04/09 00:10:16;;;;;;;;;;;;;;;;;;6237185;23;19904;-59
2022/04/09 00:12:47;;;;;;;;;;;;;;;;;;6236199;23;20438;-59
2022/04/09 00:15:13;;;;;;;;;;;;;;;;;;6236834;23;19991;-59
2022/04/09 00:17:39;;;;;;;;;;;;;;;;;;6236876;23;19935;-59
2022/04/09 00:20:05;;;;;;;;;;;;;;;;;;6236878;23;19961;-59
2022/04/09 00:22:33;;;;;;;;;;;;;;;;;;6236461;23;19908;-58
2022/04/09 00:24:59;;;;;;;;;;;;;;;;;;6236489;23;19943;-59
2022/04/09 00:27:25;;;;;;;;;;;;;;;;;;6237696;23;19908;-59
2022/04/09 00:29:52;;;;;;;;;;;;;;;;;;6237917;23;19970;-59
2022/04/09 00:32:19;;;;;;;0.77;0.40;;;;;;;;;;6235618;23;20357;-59
2022/04/09 00:34:45;;;;;;;0.85;0.35;;;;;;;;;;6236131;23;20598;-59
2022/04/09 00:37:11;;;;;;;0.30;0.30;;;;;;;;;;6236380;23;20008;-58
2022/04/09 00:39:37;;;;;;;0.28;0.20;;;;;;;;;;6235843;23;20027;-58
2022/04/09 00:42:03;;;;;;;0.73;0.30;;;;;;;;;;6235246;23;20004;-57
2022/04/09 00:44:31;;;;;;;0.20;0.20;;;;;;;;;;6235497;23;19996;-58
2022/04/09 00:46:57;;;;;;;0.20;0.20;;;;;;;;;;6236225;23;20048;-58
2022/04/09 00:49:28;;;;;;;2.13;0.30;;;;;;;;;;6237011;23;20006;-58
2022/04/09 00:51:54;;;;;;;1.17;0.40;;;;;;;;;;6209720;23;20028;-58
2022/04/09 00:54:23;;;;;;;0.45;0.32;;;;;;;;;;6236778;23;20008;-58
2022/04/09 00:56:50;;;;;;;0.90;0.38;;;;;;;;;;6236321;23;20011;-58
2022/04/09 00:59:17;;;;;;;0.55;0.30;;;;;;;;;;6236083;23;20012;-59
2022/04/09 01:01:43;;;;;;;0.30;0.30;;;;;;;;;;6235567;23;20011;-58
2022/04/09 01:04:10;;;;;;;1.08;0.40;;;;;;;;;;6236700;23;20004;-58
2022/04/09 01:06:38;;;;;;;0.50;0.45;;;;;;;;;;6235876;23;20003;-57
2022/04/09 01:09:05;;;;;;;0.30;0.30;;;;;;;;;;6235718;23;20353;-57
2022/04/09 01:11:32;;;;;;;0.30;0.30;;;;;;;;;;6236162;23;20000;-58
2022/04/09 01:13:58;;;;;;;0.30;0.30;;;;;;;;;;6235684;23;20087;-58
2022/04/09 01:16:28;;;;;;;0.30;0.30;;;;;;;;;;6237026;23;20135;-58
2022/04/09 01:18:55;;;;;;;0.30;0.30;;;;;;;;;;6237028;23;20093;-59
2022/04/09 01:21:24;;;;;;;0.80;0.30;;;;;;;;;;6236859;23;20477;-59
2022/04/09 01:23:50;;;;;;;0.30;0.30;;;;;;;;;;6235556;23;20023;-58
2022/04/09 01:26:17;;;;;;;0.20;0.20;;;;;;;;;;6236121;23;20004;-57
2022/04/09 01:28:43;;;;;;;0.20;0.20;;;;;;;;;;6235918;23;20449;-58
2022/04/09 01:31:09;;;;;;;0.20;0.20;;;;;;;;;;6208952;23;20342;-58
2022/04/09 01:33:36;;;;;;;0.20;0.20;;;;;;;;;;6235749;23;20075;-58
2022/04/09 01:36:02;;;;;;;0.55;0.35;;;;;;;;;;6235760;23;20001;-57
2022/04/09 01:38:29;;;;;;;0.20;0.20;;;;;;;;;;6235990;23;20016;-58
2022/04/09 01:40:56;;;;;;;0.20;0.20;;;;;;;;;;6236493;23;20004;-57
2022/04/09 01:43:22;;;;;;;0.52;0.20;;;;;;;;;;6236434;23;20162;-57
2022/04/09 01:45:48;;;;;;;0.20;0.20;;;;;;;;;;6236001;23;19996;-58
2022/04/09 01:48:14;;;;;;;0.10;0.10;;;;;;;;;;6236098;23;20000;-58
2022/04/09 01:50:40;;;;;;;0.10;0.10;;;;;;;;;;6236373;23;20000;-58
2022/04/09 01:53:07;;;;;;;0.20;0.20;;;;;;;;;;6235524;23;20004;-57
2022/04/09 01:55:33;;;;;;;0.20;0.20;;;;;;;;;;6236355;23;20457;-59
2022/04/09 01:57:59;;;;;;;0.20;0.20;;;;;;;;;;6237967;23;20247;-59
2022/04/09 02:00:25;;;;;;;0.20;0.20;;;;;;;;;;6238460;23;20127;-59
2022/04/09 02:02:51;;;;;;;0.25;0.20;;;;;;;;;;6238214;23;20344;-59
2022/04/09 02:05:18;;;;;;;0.30;0.30;;;;;;;;;;6237654;23;20087;-59
2022/04/09 02:07:44;;;;;;;0.30;0.30;;;;;;;;;;6236803;23;20000;-57
2022/04/09 02:10:11;;;;;;;0.20;0.20;;;;;;;;;;6236933;23;20000;-57
2022/04/09 02:12:37;;;;;;;1.42;0.40;;;;;;;;;;6237894;23;20054;-58
2022/04/09 02:15:04;;;;;;;0.40;0.40;;;;;;;;;;6237889;23;20537;-57
2022/04/09 02:17:30;;;;;;;0.20;0.20;;;;;;;;;;6238049;23;20204;-57
2022/04/09 02:19:56;;;;;;;0.20;0.20;;;;;;;;;;6237381;23;20008;-59
2022/04/09 02:22:23;;;;;;;1.23;0.40;;;;;;;;;;6238367;23;20000;-57
2022/04/09 02:24:52;;;;;;;0.40;0.35;;;;;;;;;;6237641;23;20007;-59
2022/04/09 02:27:19;;;;;;;0.25;0.25;;;;;;;;;;6237483;23;20004;-58
2022/04/09 02:29:46;;;;;;;0.30;0.30;;;;;;;;;;6237596;23;20004;-58
2022/04/09 02:32:13;;;;;;;0.30;0.30;;;;;;;;;;6237443;23;20460;-58
2022/04/09 02:34:39;;;;;;;0.35;0.30;;;;;;;;;;6237726;23;20000;-59
2022/04/09 02:37:05;;;;;;;0.20;0.20;;;;;;;;;;6237328;23;20069;-57
2022/04/09 02:39:32;;;;;;;0.30;0.30;;;;;;;;;;6237402;23;20013;-58
2022/04/09 02:41:59;;;;;;;0.30;0.30;;;;;;;;;;6237253;23;20038;-59
2022/04/09 02:44:25;;;;;;;0.38;0.30;;;;;;;;;;6238649;23;20004;-58
2022/04/09 02:46:52;;;;;;;0.30;0.30;;;;;;;;;;6237683;23;20010;-58
2022/04/09 02:49:19;;;;;;;0.32;0.32;;;;;;;;;;6237228;23;20386;-59
2022/04/09 02:51:46;;;;;;;0.30;0.30;;;;;;;;;;6237378;23;20015;-59
2022/04/09 02:54:16;;;;;;;0.35;0.35;;;;;;;;;;6237690;23;20008;-58
2022/04/09 02:56:46;;;;;;;0.68;0.38;;;;;;;;;;6237059;23;20004;-60
2022/04/09 02:59:13;;;;;;;0.30;0.30;;;;;;;;;;6237089;23;20004;-59
2022/04/09 03:01:40;;;;;;;0.30;0.30;;;;;;;;;;6237373;23;20078;-59
2022/04/09 03:04:06;;;;;;;0.30;0.30;;;;;;;;;;6237301;23;20377;-59
2022/04/09 03:06:32;;;;;;;0.40;0.40;;;;;;;;;;6235914;23;20079;-59
2022/04/09 03:08:59;;;;;;;0.28;0.28;;;;;;;;;;6237278;23;20128;-59
2022/04/09 03:11:26;;;;;;;0.30;0.30;;;;;;;;;;6236980;23;20000;-59
2022/04/09 03:13:52;;;;;;;0.30;0.30;;;;;;;;;;6237866;23;20058;-59
2022/04/09 03:16:18;;;;;;;0.45;0.45;;;;;;;;;;6237350;23;20000;-59
2022/04/09 03:18:45;;;;;;;0.75;0.32;;;;;;;;;;6236923;23;20058;-57
2022/04/09 03:21:11;;;;;;;0.40;0.40;;;;;;;;;;6236878;23;20011;-59
2022/04/09 03:23:37;;;;;;;0.30;0.30;;;;;;;;;;6237156;23;20075;-58
2022/04/09 03:26:05;;;;;;;0.60;0.60;;;;;;;;;;6236307;23;20079;-58
2022/04/09 03:28:31;;;;;;;0.50;0.50;;;;;;;;;;6237314;23;20004;-58
2022/04/09 03:30:57;;;;;;;0.30;0.30;;;;;;;;;;6236837;23;20350;-59
2022/04/09 03:33:23;;;;;;;0.40;0.40;;;;;;;;;;6237489;23;20461;-58
2022/04/09 03:35:49;;;;;;;0.60;0.60;;;;;;;;;;6236464;23;20004;-58
2022/04/09 03:38:15;;;;;;;0.40;0.40;;;;;;;;;;6237040;23;20004;-58
2022/04/09 03:40:42;;;;;;;0.40;0.40;;;;;;;;;;6236591;23;20046;-58
2022/04/09 03:43:09;;;;;;;0.30;0.30;;;;;;;;;;6236955;23;20057;-59
2022/04/09 03:45:36;;;;;;;0.30;0.30;;;;;;;;;;6236278;23;20000;-58
2022/04/09 03:48:02;;;;;;;0.40;0.40;;;;;;;;;;6235966;23;20066;-59
2022/04/09 03:50:28;;;;;;;0.40;0.40;;;;;;;;;;6236853;23;20027;-59
2022/04/09 03:52:54;;;;;;;0.40;0.40;;;;;;;;;;6237694;23;20006;-58
2022/04/09 03:55:20;;;;;;;;;;;;;;;;;;6237260;23;20130;-59
2022/04/09 03:57:46;;;;;;;;;;;;;;;;;;6237425;23;19903;-58
2022/04/09 04:00:14;;;;;;;;;;;;;;;;;;6237463;23;20283;-58
2022/04/09 04:02:41;;;;;;;;;;;;;;;;;;6237108;23;19908;-58
2022/04/09 04:05:08;;;;;;;;;;;;;;;;;;6236889;23;19986;-59
2022/04/09 04:07:34;;;;;;;;;;;;;;;;;;6210378;23;19973;-58
2022/04/09 04:10:00;;;;;;;;;;;;;;;;;;6237318;23;19899;-58
2022/04/09 04:12:28;;;;;;;;;;;;;;;;;;6237027;23;19910;-58
2022/04/09 04:14:54;;;;;;;;;;;;;;;;;;6237495;23;19900;-58
2022/04/09 04:17:20;;;;;;;;;;;;;;;;;;6237538;23;19906;-58
2022/04/09 04:19:45;;;;;;;;;;;;;;;;;;6236571;23;20318;-58
2022/04/09 04:22:12;;;;;;;0.30;0.30;;;;;;;;;;6235190;23;20387;-59
2022/04/09 04:24:38;;;;;;;0.30;0.30;;;;;;;;;;6236293;23;20434;-59
2022/04/09 04:27:05;;;;;;;0.30;0.30;;;;;;;;;;6236177;23;20378;-58
2022/04/09 04:29:31;;;;;;;0.20;0.20;;;;;;;;;;6234800;23;19999;-50
2022/04/09 04:31:57;;;;;;;0.20;0.20;;;;;;;;;;6237877;23;20012;-48
2022/04/09 04:34:23;;;;;;;0.30;0.30;;;;;;;;;;6208799;23;20016;-49
2022/04/09 04:36:49;;;;;;;0.20;0.20;;;;;;;;;;6235813;23;20011;-49
2022/04/09 04:39:16;;;;;;;0.20;0.20;;;;;;;;;;6236695;23;20004;-48
2022/04/09 04:41:42;;;;;;;0.25;0.25;;;;;;;;;;6236300;23;20035;-52
2022/04/09 04:44:09;;;;;;;0.30;0.30;;;;;;;;;;6235884;23;19996;-48
2022/04/09 04:46:36;;;;;;;0.20;0.20;;;;;;;;;;6235846;23;20344;-52
2022/04/09 04:49:03;;;;;;;0.20;0.20;;;;;;;;;;6236695;23;20008;-50
2022/04/09 04:51:29;;;;;;;0.30;0.30;;;;;;;;;;6210161;23;20040;-47
2022/04/09 04:53:56;;;;;;;0.30;0.30;;;;;;;;;;6235594;23;20441;-50
2022/04/09 04:56:23;;;;;;;0.20;0.20;;;;;;;;;;6235661;23;20007;-51
2022/04/09 04:58:50;;;;;;;0.20;0.20;;;;;;;;;;6236259;23;20074;-48
2022/04/09 05:01:17;;;;;;;0.20;0.20;;;;;;;;;;6236530;23;20005;-48
2022/04/09 05:03:43;;;;;;;0.30;0.30;;;;;;;;;;6235838;23;20004;-51
2022/04/09 05:06:09;;;;;;;0.40;0.30;;;;;;;;;;6234269;23;20004;-52
2022/04/09 05:08:35;;;;;;;0.20;0.20;;;;;;;;;;6236459;23;20393;-49
2022/04/09 05:11:01;;;;;;;0.20;0.20;;;;;;;;;;6236018;23;20007;-52
2022/04/09 05:13:28;;;;;;;0.20;0.20;;;;;;;;;;6237040;23;20008;-51
2022/04/09 05:15:55;;;;;;;0.55;0.52;;;;;;;;;;6234623;23;20004;-51
2022/04/09 05:18:21;;;;;;;2.67;1.80;;;;;;;;;;6235817;23;20004;-50
2022/04/09 05:20:50;;;;;;;2.28;1.67;;;;;;;;;;6235890;23;20448;-50
2022/04/09 05:23:17;;;;;;;2.13;1.80;;;;;;;;;;6235567;23;20000;-51
2022/04/09 05:25:43;;;;;;;1.60;1.50;;;;;;;;;;6235698;23;20000;-51
2022/04/09 05:28:09;;;;;;;1.58;1.27;;;;;;;;;;6236100;23;20441;-49
2022/04/09 05:30:35;;;;;;;2.17;1.98;;;;;;;;;;6236179;23;19996;-51
2022/04/09 05:33:02;;;;;;;1.33;1.23;;;;;;;;;;6237806;23;20004;-48
2022/04/09 05:35:29;;;;;;;0.90;0.90;;;;;;;;;;6238708;23;20011;-48
2022/04/09 05:37:55;;;;;;;0.80;0.80;;;;;;;;;;6238122;23;20000;-51
2022/04/09 05:40:22;;;;;;;0.60;0.60;;;;;;;;;;6237805;23;20011;-51
2022/04/09 05:42:48;;;;;;;0.50;0.40;;;;;;;;;;6238041;23;20057;-50
2022/04/09 05:45:14;;;;;;;0.50;0.50;;;;;;;;;;6210166;23;20000;-49
2022/04/09 05:47:41;;;;;;;0.40;0.40;;;;;;;;;;6237954;23;20024;-50
2022/04/09 05:50:09;;;;;;;0.30;0.30;;;;;;;;;;6238316;23;20000;-49
2022/04/09 05:52:35;;;;;;;0.20;0.20;;;;;;;;;;6237925;23;20004;-50
2022/04/09 05:55:03;;;;;;;0.30;0.30;;;;;;;;;;6237899;23;20058;-47
2022/04/09 05:57:30;;;;;;;0.50;0.50;;;;;;;;;;6238256;23;20406;-51
2022/04/09 05:59:56;;;;;;;0.30;0.30;;;;;;;;;;6237675;23;20011;-49
2022/04/09 06:02:23;;;;;;;0.57;0.45;;;;;;;;;;6211089;23;20016;-51
2022/04/09 06:04:49;;;;;;;0.30;0.30;;;;;;;;;;6237114;23;20091;-52
2022/04/09 06:07:15;;;;;;;0.30;0.30;;;;;;;;;;6237915;23;20043;-51
2022/04/09 06:09:41;;;;;;;0.30;0.30;;;;;;;;;;6210859;23;20035;-47
2022/04/09 06:12:08;;;;;;;0.30;0.30;;;;;;;;;;6238114;23;20078;-50
2022/04/09 06:14:34;;;;;;;0.30;0.30;;;;;;;;;;6237396;23;20004;-51
2022/04/09 06:17:00;;;;;;;0.40;0.30;;;;;;;;;;6238036;23;20027;-49
2022/04/09 06:19:27;;;;;;;0.32;0.32;;;;;;;;;;6238723;23;20012;-50
2022/04/09 06:21:53;;;;;;;0.40;0.40;;;;;;;;;;6237358;23;20460;-51
2022/04/09 06:24:20;;;;;;;0.63;0.40;;;;;;;;;;6237056;23;20019;-51
2022/04/09 06:26:47;;;;;;;0.40;0.40;;;;;;;;;;6235779;23;19996;-50
2022/04/09 06:29:13;;;;;;;0.30;0.30;;;;;;;;;;6238811;23;20005;-49
2022/04/09 06:31:40;;;;;;;0.40;0.40;;;;;;;;;;6236325;23;20039;-50
2022/04/09 06:34:06;;;;;;;0.40;0.40;;;;;;;;;;6237059;23;20548;-51
2022/04/09 06:36:33;;;;;;;0.40;0.40;;;;;;;;;;6237722;23;20004;-51
2022/04/09 06:39:00;;;;;;;0.60;0.60;;;;;;;;;;6237224;23;20696;-51
2022/04/09 06:41:28;;;;;;;0.50;0.30;;;;;;;;;;6237898;23;20323;-48
2022/04/09 06:43:55;;;;;;;0.65;0.50;;;;;;;;;;6236273;23;20004;-50
2022/04/09 06:46:21;;;;;;;0.32;0.32;;;;;;;;;;6237073;23;20000;-50
2022/04/09 06:48:47;;;;;;;0.65;0.60;;;;;;;;;;6237364;23;20346;-51
2022/04/09 06:51:13;;;;;;;0.60;0.60;;;;;;;;;;6237907;23;20000;-51
2022/04/09 06:53:39;;;;;;;0.50;0.50;;;;;;;;;;6237511;23;20028;-51
2022/04/09 06:56:05;;;;;;;0.70;0.60;;;;;;;;;;6237131;23;20291;-51
2022/04/09 06:58:31;;;;;;;0.82;0.70;;;;;;;;;;6237488;23;20046;-49
2022/04/09 07:00:58;;;;;;;1.10;0.60;;;;;;;;;;6236980;23;20496;-50
2022/04/09 07:03:24;;;;;;;1.65;0.75;;;;;;;;;;6210080;23;20001;-50
2022/04/09 07:05:50;;;;;;;0.60;0.60;;;;;;;;;;6237333;23;20004;-51
2022/04/09 07:08:17;;;;;;;0.47;0.47;;;;;;;;;;6239095;23;20027;-51
2022/04/09 07:10:43;;;;;;;0.60;0.60;;;;;;;;;;6239484;23;20016;-50
2022/04/09 07:13:09;;;;;;;0.60;0.60;;;;;;;;;;6238034;23;20004;-53
2022/04/09 07:15:35;;;;;;;0.65;0.60;;;;;;;;;;6237355;23;20062;-48
2022/04/09 07:18:01;;;;;;;0.95;0.70;;;;;;;;;;6237645;23;20000;-50
2022/04/09 07:20:29;;;;;;;0.50;0.50;;;;;;;;;;6237894;23;20040;-46
2022/04/09 07:22:55;;;;;;;0.63;0.63;;;;;;;;;;6238754;23;20057;-49
2022/04/09 07:25:21;;;;;;;0.40;0.40;;;;;;;;;;6238265;23;20093;-51
2022/04/09 07:27:48;;;;;;;0.70;0.60;;;;;;;;;;6238345;23;20101;-50
2022/04/09 07:30:18;;;;;;;0.80;0.80;;;;;;;;;;6238654;23;20072;-48
2022/04/09 07:32:45;;;;;;;0.65;0.63;;;;;;;;;;6238188;23;20000;-51
2022/04/09 07:35:11;;;;;;;0.60;0.60;;;;;;;;;;6239063;23;20004;-50
2022/04/09 07:37:41;;;;;;;0.50;0.50;;;;;;;;;;6238471;23;20011;-50
2022/04/09 07:40:07;;;;;;;0.50;0.50;;;;;;;;;;6238542;23;20000;-59
2022/04/09 07:42:34;;;;;;;0.60;0.60;;;;;;;;;;6238447;23;20389;-59
2022/04/09 07:45:00;;;;;;;0.75;0.65;;;;;;;;;;6238371;23;20401;-59
2022/04/09 07:47:26;;;;;;;0.70;0.63;;;;;;;;;;6237869;23;20481;-59
2022/04/09 07:49:52;;;;;;;0.68;0.65;;;;;;;;;;6238488;23;20524;-60
2022/04/09 07:52:18;;;;;;;0.80;0.73;;;;;;;;;;6238613;23;20071;-61
2022/04/09 07:54:44;;;;;;;4.78;2.50;;;;;;;;;;6238345;23;20501;-60
2022/04/09 07:57:10;;;;;;;3.20;1.90;;;;;;;;;;6238361;23;20000;-60
2022/04/09 07:59:36;;;;;;;4.63;2.45;;;;;;;;;;6238398;23;20464;-60
2022/04/09 08:02:02;;;;;;;5.90;2.78;;;;;;;;;;6238438;23;20344;-60
2022/04/09 08:04:28;;;;;;;5.18;2.72;;;;;;;;;;6238424;23;20043;-60
2022/04/09 08:06:54;;;;;;;5.35;2.60;;;;;;;;;;6238401;23;20321;-60
2022/04/09 08:09:20;;;;;;;3.95;2.30;;;;;;;;;;6237579;23;20432;-60
2022/04/09 08:11:47;;;;;;;5.78;2.90;;;;;;;;;;6238327;23;20004;-60
2022/04/09 08:14:13;;;;;;;4.38;2.67;;;;;;;;;;6239155;23;20062;-60
2022/04/09 08:16:39;;;;;;;3.60;2.10;;;;;;;;;;6237831;23;20027;-60
2022/04/09 08:19:07;;;;;;;3.10;1.75;;;;;;;;;;6237699;23;20067;-59
2022/04/09 08:21:33;;;;;;;2.92;2.00;;;;;;;;;;6236483;23;20011;-60
2022/04/09 08:24:00;;;;;;;3.03;1.80;;;;;;;;;;6234213;23;20004;-60
2022/04/09 08:26:27;;;;;;;2.63;1.77;;;;;;;;;;6237815;23;20480;-60
2022/04/09 08:28:53;;;;;;;1.40;1.05;;;;;;;;;;6233894;23;20030;-60
2022/04/09 08:31:19;;;;;;;1.60;1.23;;;;;;;;;;6238247;23;20334;-60
2022/04/09 08:33:45;;;;;;;1.65;1.10;;;;;;;;;;6238294;23;20011;-60
2022/04/09 08:36:12;;;;;;;1.13;1.00;;;;;;;;;;6237704;23;20004;-60
2022/04/09 08:38:38;;;;;;;1.42;1.02;;;;;;;;;;6238511;23;20022;-60
2022/04/09 08:41:04;;;;;;;1.95;0.80;;;;;;;;;;6235728;23;20449;-61
2022/04/09 08:43:30;;;;;;;0.73;0.73;;;;;;;;;;6237489;23;20079;-61
2022/04/09 08:46:00;;;;;;;1.23;1.00;;;;;;;;;;6236942;23;19996;-60
2022/04/09 08:48:27;;;;;;;2.20;1.60;;;;;;;;;;6237244;23;20410;-60
2022/04/09 08:50:54;;;;;;;1.38;1.25;;;;;;;;;;6238574;23;20028;-60
2022/04/09 08:53:20;;;;;;;1.42;1.00;;;;;;;;;;6236779;23;20464;-61
2022/04/09 08:55:47;;;;;;;1.02;0.93;;;;;;;;;;6237103;23;20071;-61
2022/04/09 08:58:14;;;;;;;1.02;0.93;;;;;;;;;;6237327;23;20014;-60
2022/04/09 09:00:42;;;;;;;0.98;0.90;;;;;;;;;;6237372;23;20004;-60
2022/04/09 09:03:10;;;;;;;1.13;1.02;;;;;;;;;;6237092;23;20083;-61
2022/04/09 09:05:37;;;;;;;1.60;1.00;;;;;;;;;;6237076;23;20012;-60
2022/04/09 09:08:04;;;;;;;0.98;0.90;;;;;;;;;;6235795;23;20488;-61
2022/04/09 09:10:31;;;;;;;0.80;0.80;;;;;;;;;;6237102;23;20000;-61
2022/04/09 09:13:00;;;;;;;1.15;0.80;;;;;;;;;;6237439;23;20066;-61
2022/04/09 09:15:26;;;;;;;1.02;0.77;;;;;;;;;;6238022;23;20062;-61
2022/04/09 09:17:56;;;;;;;0.93;0.80;;;;;;;;;;6237437;23;20019;-61
2022/04/09 09:20:23;;;;;;;1.10;1.00;;;;;;;;;;6236942;23;20004;-60
2022/04/09 09:22:50;;;;;;;1.00;0.90;;;;;;;;;;6235976;23;20044;-60
2022/04/09 09:25:16;;;;;;;0.80;0.80;;;;;;;;;;6237170;23;20000;-60
2022/04/09 09:27:43;;;;;;;1.10;0.85;;;;;;;;;;6236017;23;20012;-61
2022/04/09 09:30:13;;;;;;;1.05;0.80;;;;;;;;;;6236928;23;20066;-61
2022/04/09 09:32:41;;;;;;;1.05;0.90;;;;;;;;;;6236519;23;20732;-61
2022/04/09 09:35:12;;;;;;;0.75;0.75;;;;;;;;;;6236803;23;20020;-61
2022/04/09 09:37:39;;;;;;;1.58;0.68;;;;;;;;;;6236414;23;20401;-61
2022/04/09 09:40:06;;;;;;;0.60;0.55;;;;;;;;;;6236809;23;20004;-61
2022/04/09 09:42:35;;;;;;;0.80;0.80;;;;;;;;;;6235877;23;20011;-60
2022/04/09 09:45:01;;;;;;;0.98;0.93;;;;;;;;;;6237236;23;20003;-60
2022/04/09 09:47:27;;;;;;;0.85;0.65;;;;;;;;;;6237582;23;20007;-60
2022/04/09 09:49:55;;;;;;;0.52;0.52;;;;;;;;;;6237248;23;20083;-61
2022/04/09 09:52:28;;;;;;;0.70;0.70;;;;;;;;;;6236425;23;20036;-61
2022/04/09 09:55:00;;;;;;;0.77;0.77;;;;;;;;;;6237499;23;20008;-60
2022/04/09 09:57:28;;;;;;;1.15;0.90;;;;;;;;;;6237451;23;20000;-60
2022/04/09 09:59:54;;;;;;;0.88;0.75;;;;;;;;;;6236660;23;20081;-61
2022/04/09 10:02:21;;;;;;;1.92;0.90;;;;;;;;;;6236147;23;20000;-60
2022/04/09 10:04:48;;;;;;;0.93;0.75;;;;;;;;;;6235788;23;20012;-61
2022/04/09 10:07:15;;;;;;;0.80;0.77;;;;;;;;;;6234939;23;20007;-61
2022/04/09 10:09:41;;;;;;;1.80;0.95;;;;;;;;;;6236864;23;19996;-61
2022/04/09 10:12:12;;;;;;;2.53;1.55;;;;;;;;;;6236655;23;20004;-60
2022/04/09 10:14:40;;;;;;;9.90;3.60;;;;;;;;;;6236668;23;20000;-61
2022/04/09 10:17:10;;;;;;;7.70;3.22;;;;;;;;;;6236726;23;20083;-61
2022/04/09 10:19:41;;;;;;;5.38;2.17;;;;;;;;;;6238398;23;20023;-61
2022/04/09 10:22:07;;;;;;;5.05;1.98;;;;;;;;;;6238544;23;20012;-61
2022/04/09 10:24:34;;;;;;;4.07;1.77;;;;;;;;;;6237683;23;20075;-60
2022/04/09 10:27:04;;;;;;;4.72;1.38;;;;;;;;;;6238003;23;20000;-60
2022/04/09 10:29:47;;;;;;;3.75;1.42;;;;;;;;;;6238721;23;20005;-60
2022/04/09 10:32:33;;;;;;;1.35;0.90;;;;;;;;;;6240137;23;20062;-61
2022/04/09 10:34:59;;;;;;;1.85;0.90;;;;;;;;;;6239045;23;20004;-61
2022/04/09 10:37:26;;;;;;;2.53;0.85;;;;;;;;;;6240386;23;20008;-61
2022/04/09 10:39:55;;;;;;;2.72;1.00;;;;;;;;;;6239337;23;20000;-60
2022/04/09 10:42:50;;;;;;;1.27;0.82;;;;;;;;;;6238724;23;20000;-61
2022/04/09 10:45:18;;;;;;;2.13;1.08;;;;;;;;;;6208482;23;20004;-61
2022/04/09 10:48:03;;;;;;;1.77;0.85;;;;;;;;;;6239517;23;20063;-61
2022/04/09 10:50:49;;;;;;;1.60;0.82;;;;;;;;;;6238580;23;20004;-62
2022/04/09 10:53:16;;;;;;;1.42;0.70;;;;;;;;;;6239443;23;20008;-61
2022/04/09 10:55:43;;;;;;;2.30;0.85;;;;;;;;;;6240070;23;20015;-61
2022/04/09 10:58:10;;;;;;;1.15;0.60;;;;;;;;;;6240027;23;20011;-61
2022/04/09 11:00:37;;;;;;;0.60;0.60;;;;;;;;;;6239698;23;20031;-61
2022/04/09 11:03:04;;;;;;;1.58;0.63;;;;;;;;;;6239488;23;20004;-61
2022/04/09 11:05:31;;;;;;;0.73;0.70;;;;;;;;;;6239731;23;20036;-61
2022/04/09 11:08:07;;;;;;;1.10;0.60;;;;;;;;;;6240664;23;20067;-61
2022/04/09 11:10:33;;;;;;;0.50;0.50;;;;;;;;;;6239711;23;19999;-61
2022/04/09 11:12:59;;;;;;;0.80;0.68;;;;;;;;;;6240131;23;20000;-62
2022/04/09 11:15:27;;;;;;;0.75;0.60;;;;;;;;;;6240396;23;20014;-61
2022/04/09 11:17:59;;;;;;;0.55;0.50;;;;;;;;;;6239634;23;20007;-61
2022/04/09 11:20:30;;;;;;;1.27;0.70;;;;;;;;;;6240286;23;20066;-62
2022/04/09 11:22:56;;;;;;;1.73;0.60;;;;;;;;;;6239365;23;20005;-62
2022/04/09 11:25:22;;;;;;;0.75;0.60;;;;;;;;;;6239951;23;20012;-62
2022/04/09 11:27:49;;;;;;;1.02;0.90;;;;;;;;;;6239615;23;20011;-62
2022/04/09 11:30:15;;;;;;;0.70;0.52;;;;;;;;;;6238841;23;20000;-62
2022/04/09 11:32:42;;;;;;;1.70;0.60;;;;;;;;;;6239040;23;20083;-61
2022/04/09 11:35:10;;;;;;;0.85;0.52;;;;;;;;;;6238742;23;20000;-61
2022/04/09 11:37:43;;;;;;;1.40;0.50;;;;;;;;;;6238532;23;20075;-61
2022/04/09 11:40:10;;;;;;;0.88;0.60;;;;;;;;;;6239146;23;20007;-62
2022/04/09 11:42:45;;;;;;;2.25;0.68;;;;;;;;;;6239174;23;20008;-62
2022/04/09 11:45:21;;;;;;;1.20;0.70;;;;;;;;;;6238989;23;20011;-47
2022/04/09 11:47:48;;;;;;;1.25;0.90;;;;;;;;;;6239377;23;20413;-53
2022/04/09 11:50:14;;;;;;;1.88;0.85;;;;;;;;;;6238505;23;20027;-48
2022/04/09 11:52:41;;;;;;;2.55;0.90;;;;;;;;;;6239552;23;20011;-53
2022/04/09 11:55:10;;;;;;;3.45;1.02;;;;;;;;;;6239450;23;20000;-51
2022/04/09 11:57:36;;;;;;;2.92;1.10;;;;;;;;;;6237136;23;20123;-49
2022/04/09 12:00:04;;;;;;;1.08;0.73;;;;;;;;;;6239903;23;20008;-51
2022/04/09 12:02:30;;;;;;;1.58;0.80;;;;;;;;;;6239411;23;20004;-53
2022/04/09 12:04:57;;;;;;;2.63;0.90;;;;;;;;;;6239492;23;20008;-53
2022/04/09 12:07:28;;;;;;;1.02;0.93;;;;;;;;;;6238771;23;20505;-49
2022/04/09 12:09:55;;;;;;;1.80;0.98;;;;;;;;;;6240232;23;20083;-53
2022/04/09 12:12:22;;;;;;;3.72;1.35;;;;;;;;;;6239153;23;20382;-52
2022/04/09 12:14:55;;;;;;;2.65;0.80;;;;;;;;;;6238905;23;20384;-49
2022/04/09 12:17:23;;;;;;;1.35;0.70;;;;;;;;;;6236663;23;20004;-52
2022/04/09 12:19:50;;;;;;;1.05;0.80;;;;;;;;;;6238717;23;20062;-52
2022/04/09 12:22:19;;;;;;;1.30;0.60;;;;;;;;;;6238012;23;20004;-50
2022/04/09 12:24:55;;;;;;;0.75;0.60;;;;;;;;;;6234875;23;20012;-51
2022/04/09 12:27:22;;;;;;;1.15;0.60;;;;;;;;;;6236466;23;20007;-52
2022/04/09 12:29:51;;;;;;;0.60;0.50;;;;;;;;;;6210089;23;20000;-51
2022/04/09 12:32:19;;;;;;;0.80;0.40;;;;;;;;;;6237623;23;20083;-50
2022/04/09 12:35:12;;;;;;;0.52;0.47;;;;;;;;;;6236853;23;20031;-51
2022/04/09 12:37:44;;;;;;;0.40;0.40;;;;;;;;;;6230522;23;20012;-51
2022/04/09 12:40:12;;;;;;;0.85;0.50;;;;;;;;;;6237640;23;20432;-52
2022/04/09 12:42:38;;;;;;;1.80;0.70;;;;;;;;;;6236465;23;20058;-51
2022/04/09 12:45:11;;;;;;;2.38;0.90;;;;;;;;;;6236696;23;20053;-50
2022/04/09 12:47:37;;;;;;;3.03;0.57;;;;;;;;;;6237595;23;20027;-52
2022/04/09 12:50:04;;;;;;;1.83;0.50;;;;;;;;;;6209888;23;20004;-49
2022/04/09 12:52:30;;;;;;;2.80;0.70;;;;;;;;;;6237591;23;20454;-49
2022/04/09 12:54:57;;;;;;;1.55;0.73;;;;;;;;;;6238027;23;20011;-52
2022/04/09 12:57:23;;;;;;;1.85;0.75;;;;;;;;;;6238716;23;20004;-50
2022/04/09 12:59:49;;;;;;;1.27;1.13;;;;;;;;;;6237801;23;20007;-51
2022/04/09 13:02:15;;;;;;;1.05;0.70;;;;;;;;;;6237848;23;20012;-51
2022/04/09 13:04:41;;;;;;;2.05;0.70;;;;;;;;;;6238107;23;20357;-52
2022/04/09 13:07:08;;;;;;;0.75;0.50;;;;;;;;;;6236802;23;20000;-52
2022/04/09 13:09:34;;;;;;;1.15;0.50;;;;;;;;;;6237527;23;20330;-51
2022/04/09 13:12:00;;;;;;;0.55;0.52;;;;;;;;;;6238015;23;20004;-50
2022/04/09 13:14:26;;;;;;;0.47;0.40;;;;;;;;;;6238672;23;20445;-48
2022/04/09 13:16:53;;;;;;;1.02;0.40;;;;;;;;;;6238173;23;20008;-48
2022/04/09 13:19:20;;;;;;;0.75;0.50;;;;;;;;;;6237549;23;20030;-51
2022/04/09 13:21:46;;;;;;;1.17;0.55;;;;;;;;;;6237009;23;20014;-51
2022/04/09 13:24:12;;;;;;;0.63;0.60;;;;;;;;;;6238097;23;20007;-52
2022/04/09 13:26:38;;;;;;;1.15;0.70;;;;;;;;;;6237362;23;20043;-51
2022/04/09 13:29:04;;;;;;;0.65;0.60;;;;;;;;;;6236825;23;20000;-49
2022/04/09 13:31:31;;;;;;;0.38;0.38;;;;;;;;;;6237397;23;19996;-52
2022/04/09 13:34:04;;;;;;;0.47;0.40;;;;;;;;;;6231504;23;20008;-48
2022/04/09 13:36:31;;;;;;;1.17;0.52;;;;;;;;;;6231477;23;20000;-48
2022/04/09 13:38:57;;;;;;;0.40;0.40;;;;;;;;;;6231410;23;20416;-50
2022/04/09 13:41:26;;;;;;;0.65;0.30;;;;;;;;;;6230856;23;20039;-52
2022/04/09 13:43:52;;;;;;;0.80;0.38;;;;;;;;;;6239058;23;20026;-48
2022/04/09 13:46:18;;;;;;;0.50;0.30;;;;;;;;;;6238406;23;20000;-49
2022/04/09 13:48:44;;;;;;;0.88;0.60;;;;;;;;;;6238547;23;20000;-52
2022/04/09 13:51:12;;;;;;;1.00;0.55;;;;;;;;;;6238168;23;19997;-52
2022/04/09 13:53:39;;;;;;;0.75;0.40;;;;;;;;;;6238768;23;20004;-50
2022/04/09 13:56:05;;;;;;;1.42;0.40;;;;;;;;;;6239797;23;20417;-51
2022/04/09 13:58:31;;;;;;;0.30;0.30;;;;;;;;;;6240669;23;20015;-50
2022/04/09 14:00:57;;;;;;;0.35;0.32;;;;;;;;;;6240600;23;20542;-49
2022/04/09 14:03:23;;;;;;;0.30;0.30;;;;;;;;;;6240379;23;20011;-48
2022/04/09 14:05:49;;;;;;;0.35;0.32;;;;;;;;;;6239343;23;20342;-50
2022/04/09 14:08:15;;;;;;;0.40;0.40;;;;;;;;;;6240141;23;20080;-52
2022/04/09 14:10:43;;;;;;;0.40;0.40;;;;;;;;;;6240055;23;20410;-50
2022/04/09 14:13:09;;;;;;;0.45;0.30;;;;;;;;;;6239060;23;20058;-51
2022/04/09 14:15:36;;;;;;;0.45;0.43;;;;;;;;;;6240726;23;20015;-48
2022/04/09 14:18:02;;;;;;;0.98;0.40;;;;;;;;;;6240165;23;20531;-51
2022/04/09 14:20:28;;;;;;;1.30;0.50;;;;;;;;;;6240055;23;20009;-52
2022/04/09 14:22:54;;;;;;;0.75;0.38;;;;;;;;;;6237470;23;20004;-50
2022/04/09 14:25:20;;;;;;;1.50;0.50;;;;;;;;;;6240621;23;20008;-52
2022/04/09 14:27:46;;;;;;;0.55;0.55;;;;;;;;;;6237114;23;20004;-52
2022/04/09 14:30:13;;;;;;;2.63;0.60;;;;;;;;;;6238967;23;20679;-52
2022/04/09 14:32:40;;;;;;;1.55;0.55;;;;;;;;;;6239714;23;20078;-53
2022/04/09 14:35:07;;;;;;;0.50;0.40;;;;;;;;;;6237314;23;20420;-48
2022/04/09 14:37:32;;;;;;;0.43;0.40;;;;;;;;;;6209722;23;20365;-49
2022/04/09 14:39:59;;;;;;;1.17;0.47;;;;;;;;;;6236757;23;20000;-50
2022/04/09 14:42:26;;;;;;;0.60;0.50;;;;;;;;;;6236164;23;20004;-51
2022/04/09 14:44:52;;;;;;;1.05;0.50;;;;;;;;;;6237076;23;20008;-50
2022/04/09 14:47:17;;;;;;;1.42;0.80;;;;;;;;;;6235783;23;20461;-52
2022/04/09 14:49:44;;;;;;;2.70;1.25;;;;;;;;;;6236286;23;20174;-51